sensor_id;sensor_type;location;lat;lon;timestamp;pressure;altitude;pressure_sealevel;temperature;humidity
30875;BME280;17581;43.222;27.924;2023-07-28T00:01:24;100550.31;;;17.93;100.00
30875;BME280;17581;43.222;27.924;2023-07-28T00:03:50;100549.31;;;17.94;100.00
30875;BME280;17581;43.222;27.924;2023-07-28T00:06:15;100544.72;;;17.94;100.00
30875;BME280;17581;43.222;27.924;2023-07-28T00:08:40;100490.72;;;17.59;100.00
30875;BME280;17581;43.222;27.924;2023-07-28T00:11:14;100565.91;;;18.07;100.00
30875;BME280;17581;43.222;27.924;2023-07-28T00:13:40;100559.09;;;18.11;100.00
30875;BME280;17581;43.222;27.924;2023-07-28T00:16:07;100564.56;;;18.11;100.00
30875;BME280;17581;43.222;27.924;2023-07-28T00:18:32;100560.63;;;18.14;100.00
30875;BME280;17581;43.222;27.924;2023-07-28T00:20:58;100568.13;;;18.12;100.00
30875;BME280;17581;43.222;27.924;2023-07-28T00:23:24;100559.31;;;18.10;100.00
30875;BME280;17581;43.222;27.924;2023-07-28T00:25:50;100556.22;;;18.05;100.00
30875;BME280;17581;43.222;27.924;2023-07-28T00:28:16;100535.34;;;17.97;100.00
30875;BME280;17581;43.222;27.924;2023-07-28T00:30:41;100550.63;;;17.98;100.00
30875;BME280;17581;43.222;27.924;2023-07-28T00:33:06;100544.50;;;18.04;100.00
30875;BME280;17581;43.222;27.924;2023-07-28T00:35:32;100553.50;;;18.13;100.00
30875;BME280;17581;43.222;27.924;2023-07-28T00:37:58;100544.84;;;18.09;99.93
30875;BME280;17581;43.222;27.924;2023-07-28T00:40:23;100552.31;;;18.07;97.77
30875;BME280;17581;43.222;27.924;2023-07-28T00:42:49;100528.91;;;17.90;94.41
30875;BME280;17581;43.222;27.924;2023-07-28T00:45:15;100545.03;;;18.00;94.70
30875;BME280;17581;43.222;27.924;2023-07-28T00:47:41;100554.41;;;17.97;93.92
30875;BME280;17581;43.222;27.924;2023-07-28T00:50:08;100565.28;;;17.97;94.73
30875;BME280;17581;43.222;27.924;2023-07-28T00:52:35;100563.41;;;17.89;93.78
30875;BME280;17581;43.222;27.924;2023-07-28T00:55:01;100563.75;;;17.86;93.24
30875;BME280;17581;43.222;27.924;2023-07-28T00:57:26;100541.72;;;17.73;92.18
30875;BME280;17581;43.222;27.924;2023-07-28T00:59:52;100573.97;;;17.92;90.67
30875;BME280;17581;43.222;27.924;2023-07-28T01:02:19;100576.88;;;17.91;90.91
30875;BME280;17581;43.222;27.924;2023-07-28T01:04:45;100555.78;;;17.85;90.91
30875;BME280;17581;43.222;27.924;2023-07-28T01:07:20;100582.47;;;17.98;90.77
30875;BME280;17581;43.222;27.924;2023-07-28T01:10:02;100567.53;;;17.85;90.77
30875;BME280;17581;43.222;27.924;2023-07-28T01:12:28;100579.59;;;17.91;91.68
30875;BME280;17581;43.222;27.924;2023-07-28T01:14:53;100572.28;;;17.91;92.66
30875;BME280;17581;43.222;27.924;2023-07-28T01:17:19;100592.84;;;17.94;92.47
30875;BME280;17581;43.222;27.924;2023-07-28T01:19:45;100591.81;;;17.95;92.08
30875;BME280;17581;43.222;27.924;2023-07-28T01:25:59;100589.94;;;17.95;95.02
30875;BME280;17581;43.222;27.924;2023-07-28T01:28:25;100593.03;;;17.84;96.13
30875;BME280;17581;43.222;27.924;2023-07-28T01:30:51;100591.84;;;17.79;96.16
30875;BME280;17581;43.222;27.924;2023-07-28T01:33:16;100576.22;;;17.65;96.96
30875;BME280;17581;43.222;27.924;2023-07-28T01:35:42;100593.72;;;17.62;97.08
30875;BME280;17581;43.222;27.924;2023-07-28T01:38:07;100601.38;;;17.67;98.00
30875;BME280;17581;43.222;27.924;2023-07-28T01:40:33;100588.41;;;17.53;98.51
30875;BME280;17581;43.222;27.924;2023-07-28T01:42:58;100597.63;;;17.52;97.13
30875;BME280;17581;43.222;27.924;2023-07-28T01:45:24;100593.19;;;17.51;95.28
30875;BME280;17581;43.222;27.924;2023-07-28T01:47:49;100594.91;;;17.60;96.58
30875;BME280;17581;43.222;27.924;2023-07-28T01:50:15;100609.53;;;17.59;94.20
30875;BME280;17581;43.222;27.924;2023-07-28T01:52:40;100603.25;;;17.58;92.68
30875;BME280;17581;43.222;27.924;2023-07-28T01:55:06;100604.44;;;17.56;94.61
30875;BME280;17581;43.222;27.924;2023-07-28T01:57:35;100607.16;;;17.64;95.49
30875;BME280;17581;43.222;27.924;2023-07-28T02:00:01;100608.19;;;17.63;95.48
30875;BME280;17581;43.222;27.924;2023-07-28T02:02:28;100587.09;;;17.49;94.05
30875;BME280;17581;43.222;27.924;2023-07-28T02:04:53;100614.13;;;17.66;93.51
30875;BME280;17581;43.222;27.924;2023-07-28T02:07:19;100600.34;;;17.60;95.21
30875;BME280;17581;43.222;27.924;2023-07-28T02:09:44;100596.28;;;17.56;95.66
30875;BME280;17581;43.222;27.924;2023-07-28T02:12:10;100618.22;;;17.70;94.61
30875;BME280;17581;43.222;27.924;2023-07-28T02:14:35;100621.09;;;17.69;94.17
30875;BME280;17581;43.222;27.924;2023-07-28T02:17:00;100600.69;;;17.57;93.19
30875;BME280;17581;43.222;27.924;2023-07-28T02:19:26;100628.25;;;17.70;93.18
30875;BME280;17581;43.222;27.924;2023-07-28T02:21:51;100617.03;;;17.57;94.09
30875;BME280;17581;43.222;27.924;2023-07-28T02:24:17;100641.81;;;17.62;94.96
30875;BME280;17581;43.222;27.924;2023-07-28T02:26:42;100630.28;;;17.60;95.76
30875;BME280;17581;43.222;27.924;2023-07-28T02:29:08;100635.69;;;17.52;94.62
30875;BME280;17581;43.222;27.924;2023-07-28T02:31:33;100634.19;;;17.57;95.87
30875;BME280;17581;43.222;27.924;2023-07-28T02:33:59;100636.38;;;17.54;96.07
30875;BME280;17581;43.222;27.924;2023-07-28T02:36:24;100640.09;;;17.45;95.79
30875;BME280;17581;43.222;27.924;2023-07-28T02:38:49;100588.44;;;17.12;96.21
30875;BME280;17581;43.222;27.924;2023-07-28T02:41:15;100639.44;;;17.42;97.78
30875;BME280;17581;43.222;27.924;2023-07-28T02:43:40;100643.81;;;17.43;100.00
30875;BME280;17581;43.222;27.924;2023-07-28T02:46:06;100633.63;;;17.29;100.00
30875;BME280;17581;43.222;27.924;2023-07-28T02:48:31;100643.66;;;17.37;99.11
30875;BME280;17581;43.222;27.924;2023-07-28T02:50:57;100640.78;;;17.38;99.51
30875;BME280;17581;43.222;27.924;2023-07-28T02:53:22;100639.41;;;17.34;100.00
30875;BME280;17581;43.222;27.924;2023-07-28T02:55:48;100623.94;;;17.35;100.00
30875;BME280;17581;43.222;27.924;2023-07-28T02:58:14;100643.50;;;17.47;100.00
30875;BME280;17581;43.222;27.924;2023-07-28T03:00:40;100648.78;;;17.48;100.00
30875;BME280;17581;43.222;27.924;2023-07-28T03:03:08;100636.72;;;17.42;99.10
30875;BME280;17581;43.222;27.924;2023-07-28T03:05:36;100651.81;;;17.53;98.61
30875;BME280;17581;43.222;27.924;2023-07-28T03:08:02;100655.75;;;17.51;98.72
30875;BME280;17581;43.222;27.924;2023-07-28T03:10:27;100650.31;;;17.51;98.70
30875;BME280;17581;43.222;27.924;2023-07-28T03:12:53;100650.97;;;17.53;98.25
30875;BME280;17581;43.222;27.924;2023-07-28T03:15:20;100617.66;;;17.34;97.18
30875;BME280;17581;43.222;27.924;2023-07-28T03:17:47;100658.81;;;17.56;97.00
30875;BME280;17581;43.222;27.924;2023-07-28T03:20:13;100648.59;;;17.50;97.63
30875;BME280;17581;43.222;27.924;2023-07-28T03:22:38;100647.56;;;17.51;97.10
30875;BME280;17581;43.222;27.924;2023-07-28T03:25:04;100648.75;;;17.40;95.49
30875;BME280;17581;43.222;27.924;2023-07-28T03:27:29;100659.81;;;17.47;96.20
30875;BME280;17581;43.222;27.924;2023-07-28T03:29:55;100659.47;;;17.50;97.68
30875;BME280;17581;43.222;27.924;2023-07-28T03:32:20;100675.78;;;17.50;97.04
30875;BME280;17581;43.222;27.924;2023-07-28T03:34:46;100666.78;;;17.41;95.96
30875;BME280;17581;43.222;27.924;2023-07-28T03:37:11;100677.50;;;17.42;96.22
30875;BME280;17581;43.222;27.924;2023-07-28T03:39:37;100667.97;;;17.38;96.67
30875;BME280;17581;43.222;27.924;2023-07-28T03:42:02;100688.72;;;17.48;96.89
30875;BME280;17581;43.222;27.924;2023-07-28T03:44:28;100700.66;;;17.55;96.58
30875;BME280;17581;43.222;27.924;2023-07-28T03:46:53;100702.63;;;17.53;97.19
30875;BME280;17581;43.222;27.924;2023-07-28T03:49:19;100696.19;;;17.54;97.49
30875;BME280;17581;43.222;27.924;2023-07-28T03:51:44;100705.44;;;17.61;98.13
30875;BME280;17581;43.222;27.924;2023-07-28T03:54:10;100712.22;;;17.65;100.00
30875;BME280;17581;43.222;27.924;2023-07-28T03:56:35;100697.19;;;17.53;100.00
30875;BME280;17581;43.222;27.924;2023-07-28T03:59:01;100691.94;;;17.51;100.00
30875;BME280;17581;43.222;27.924;2023-07-28T04:01:26;100716.63;;;17.66;100.00
30875;BME280;17581;43.222;27.924;2023-07-28T04:03:51;100710.16;;;17.59;100.00
30875;BME280;17581;43.222;27.924;2023-07-28T04:06:17;100702.31;;;17.48;100.00
30875;BME280;17581;43.222;27.924;2023-07-28T04:08:42;100714.78;;;17.66;100.00
30875;BME280;17581;43.222;27.924;2023-07-28T04:11:08;100717.66;;;17.65;100.00
30875;BME280;17581;43.222;27.924;2023-07-28T04:13:34;100726.69;;;17.73;100.00
30875;BME280;17581;43.222;27.924;2023-07-28T04:16:00;100712.53;;;17.62;100.00
30875;BME280;17581;43.222;27.924;2023-07-28T04:18:25;100745.88;;;17.80;100.00
30875;BME280;17581;43.222;27.924;2023-07-28T04:20:51;100729.56;;;17.72;100.00
30875;BME280;17581;43.222;27.924;2023-07-28T04:23:16;100745.41;;;17.84;100.00
30875;BME280;17581;43.222;27.924;2023-07-28T04:25:42;100735.03;;;17.88;100.00
30875;BME280;17581;43.222;27.924;2023-07-28T04:28:07;100743.19;;;17.96;100.00
30875;BME280;17581;43.222;27.924;2023-07-28T04:30:34;100721.75;;;17.93;100.00
30875;BME280;17581;43.222;27.924;2023-07-28T04:32:59;100749.16;;;18.16;100.00
30875;BME280;17581;43.222;27.924;2023-07-28T04:35:25;100755.78;;;18.21;100.00
30875;BME280;17581;43.222;27.924;2023-07-28T04:37:50;100727.38;;;18.08;100.00
30875;BME280;17581;43.222;27.924;2023-07-28T04:40:16;100742.84;;;18.15;100.00
30875;BME280;17581;43.222;27.924;2023-07-28T04:42:41;100719.03;;;18.17;100.00
30875;BME280;17581;43.222;27.924;2023-07-28T04:45:07;100739.94;;;18.33;100.00
30875;BME280;17581;43.222;27.924;2023-07-28T04:47:32;100741.50;;;18.52;100.00
30875;BME280;17581;43.222;27.924;2023-07-28T04:49:58;100740.13;;;18.56;99.71
30875;BME280;17581;43.222;27.924;2023-07-28T04:52:23;100709.50;;;18.37;98.08
30875;BME280;17581;43.222;27.924;2023-07-28T04:54:49;100748.78;;;18.59;96.74
30875;BME280;17581;43.222;27.924;2023-07-28T04:57:14;100757.97;;;18.74;96.00
30875;BME280;17581;43.222;27.924;2023-07-28T04:59:40;100737.69;;;18.77;95.35
30875;BME280;17581;43.222;27.924;2023-07-28T05:02:06;100742.09;;;18.86;95.30
30875;BME280;17581;43.222;27.924;2023-07-28T05:04:31;100702.16;;;18.62;93.37
30875;BME280;17581;43.222;27.924;2023-07-28T05:06:56;100733.88;;;18.94;93.06
30875;BME280;17581;43.222;27.924;2023-07-28T05:09:22;100736.69;;;19.09;91.60
30875;BME280;17581;43.222;27.924;2023-07-28T05:11:47;100710.66;;;19.06;90.27
30875;BME280;17581;43.222;27.924;2023-07-28T05:14:16;100732.69;;;19.27;91.60
30875;BME280;17581;43.222;27.924;2023-07-28T05:16:41;100708.06;;;19.13;89.09
30875;BME280;17581;43.222;27.924;2023-07-28T05:19:06;100747.31;;;19.34;87.48
30875;BME280;17581;43.222;27.924;2023-07-28T05:21:32;100724.34;;;19.29;87.68
30875;BME280;17581;43.222;27.924;2023-07-28T05:23:58;100742.22;;;19.39;88.65
30875;BME280;17581;43.222;27.924;2023-07-28T05:26:24;100743.72;;;19.42;89.38
30875;BME280;17581;43.222;27.924;2023-07-28T05:28:49;100746.06;;;19.53;89.59
30875;BME280;17581;43.222;27.924;2023-07-28T05:31:16;100747.56;;;19.55;89.48
30875;BME280;17581;43.222;27.924;2023-07-28T05:33:41;100712.69;;;19.43;88.28
30875;BME280;17581;43.222;27.924;2023-07-28T05:36:07;100750.22;;;19.72;87.91
30875;BME280;17581;43.222;27.924;2023-07-28T05:38:32;100757.72;;;19.70;86.42
30875;BME280;17581;43.222;27.924;2023-07-28T05:41:02;100723.03;;;19.55;86.61
30875;BME280;17581;43.222;27.924;2023-07-28T05:43:31;100717.19;;;19.59;87.62
30875;BME280;17581;43.222;27.924;2023-07-28T05:46:00;100751.84;;;19.81;87.18
30875;BME280;17581;43.222;27.924;2023-07-28T05:48:26;100734.91;;;19.85;88.03
30875;BME280;17581;43.222;27.924;2023-07-28T05:50:52;100754.94;;;20.00;89.34
30875;BME280;17581;43.222;27.924;2023-07-28T05:53:21;100735.75;;;19.86;86.30
30875;BME280;17581;43.222;27.924;2023-07-28T05:55:47;100761.16;;;20.09;86.87
30875;BME280;17581;43.222;27.924;2023-07-28T05:58:13;100763.06;;;20.08;84.25
30875;BME280;17581;43.222;27.924;2023-07-28T06:00:39;100740.50;;;20.15;84.45
30875;BME280;17581;43.222;27.924;2023-07-28T06:03:06;100723.78;;;20.09;83.54
30875;BME280;17581;43.222;27.924;2023-07-28T06:05:31;100750.63;;;20.29;83.25
30875;BME280;17581;43.222;27.924;2023-07-28T06:07:57;100707.53;;;20.16;82.06
30875;BME280;17581;43.222;27.924;2023-07-28T06:10:22;100654.09;;;19.99;82.52
30875;BME280;17581;43.222;27.924;2023-07-28T06:12:48;100744.38;;;20.57;81.00
30875;BME280;17581;43.222;27.924;2023-07-28T06:15:13;100727.13;;;20.57;80.94
30875;BME280;17581;43.222;27.924;2023-07-28T06:17:38;100732.88;;;20.62;82.58
30875;BME280;17581;43.222;27.924;2023-07-28T06:20:04;100705.81;;;20.52;81.43
30875;BME280;17581;43.222;27.924;2023-07-28T06:22:31;100723.28;;;20.66;81.32
30875;BME280;17581;43.222;27.924;2023-07-28T06:24:56;100715.63;;;20.61;80.77
30875;BME280;17581;43.222;27.924;2023-07-28T06:27:22;100711.00;;;20.62;80.97
30875;BME280;17581;43.222;27.924;2023-07-28T06:29:47;100748.25;;;20.92;81.12
30875;BME280;17581;43.222;27.924;2023-07-28T06:32:12;100731.38;;;20.89;81.00
30875;BME280;17581;43.222;27.924;2023-07-28T06:34:38;100736.75;;;20.97;81.21
30875;BME280;17581;43.222;27.924;2023-07-28T06:37:03;100719.41;;;20.90;78.86
30875;BME280;17581;43.222;27.924;2023-07-28T06:39:29;100730.66;;;21.09;79.47
30875;BME280;17581;43.222;27.924;2023-07-28T06:41:55;100714.13;;;21.03;79.38
30875;BME280;17581;43.222;27.924;2023-07-28T06:44:20;100730.72;;;21.16;77.56
30875;BME280;17581;43.222;27.924;2023-07-28T06:46:46;100723.84;;;21.20;77.78
30875;BME280;17581;43.222;27.924;2023-07-28T06:49:13;100738.81;;;21.39;78.37
30875;BME280;17581;43.222;27.924;2023-07-28T06:51:38;100741.81;;;21.44;79.12
30875;BME280;17581;43.222;27.924;2023-07-28T06:54:04;100737.41;;;21.43;77.41
30875;BME280;17581;43.222;27.924;2023-07-28T06:56:29;100742.09;;;21.49;77.00
30875;BME280;17581;43.222;27.924;2023-07-28T06:58:55;100690.84;;;21.22;75.73
30875;BME280;17581;43.222;27.924;2023-07-28T07:01:20;100761.47;;;21.68;76.12
30875;BME280;17581;43.222;27.924;2023-07-28T07:03:47;100764.19;;;21.83;77.31
30875;BME280;17581;43.222;27.924;2023-07-28T07:06:12;100768.69;;;21.91;76.25
30875;BME280;17581;43.222;27.924;2023-07-28T07:08:38;100765.78;;;21.92;76.21
30875;BME280;17581;43.222;27.924;2023-07-28T07:11:03;100743.78;;;21.86;77.17
30875;BME280;17581;43.222;27.924;2023-07-28T07:13:31;100780.06;;;22.09;77.13
30875;BME280;17581;43.222;27.924;2023-07-28T07:15:57;100772.88;;;22.08;76.09
30875;BME280;17581;43.222;27.924;2023-07-28T07:18:22;100728.13;;;21.80;76.52
30875;BME280;17581;43.222;27.924;2023-07-28T07:20:48;100778.41;;;22.14;76.42
30875;BME280;17581;43.222;27.924;2023-07-28T07:23:13;100749.78;;;21.96;75.04
30875;BME280;17581;43.222;27.924;2023-07-28T07:25:39;100782.41;;;22.12;73.57
30875;BME280;17581;43.222;27.924;2023-07-28T07:28:05;100725.16;;;21.81;74.69
30875;BME280;17581;43.222;27.924;2023-07-28T07:30:34;100755.78;;;22.06;73.21
30875;BME280;17581;43.222;27.924;2023-07-28T07:33:02;100741.38;;;21.97;73.21
30875;BME280;17581;43.222;27.924;2023-07-28T07:35:28;100749.66;;;22.04;72.18
30875;BME280;17581;43.222;27.924;2023-07-28T07:37:53;100775.34;;;22.24;73.33
30875;BME280;17581;43.222;27.924;2023-07-28T07:40:19;100752.09;;;22.13;72.08
30875;BME280;17581;43.222;27.924;2023-07-28T07:42:48;100741.75;;;22.15;71.35
30875;BME280;17581;43.222;27.924;2023-07-28T07:45:14;100750.84;;;22.16;67.22
30875;BME280;17581;43.222;27.924;2023-07-28T07:47:41;100773.59;;;22.38;69.79
30875;BME280;17581;43.222;27.924;2023-07-28T07:50:08;100766.56;;;22.29;67.41
30875;BME280;17581;43.222;27.924;2023-07-28T07:52:37;100747.16;;;22.30;65.96
30875;BME280;17581;43.222;27.924;2023-07-28T07:55:03;100721.97;;;22.20;65.08
30875;BME280;17581;43.222;27.924;2023-07-28T07:57:29;100783.53;;;22.66;67.25
30875;BME280;17581;43.222;27.924;2023-07-28T07:59:58;100773.63;;;22.65;65.34
30875;BME280;17581;43.222;27.924;2023-07-28T08:02:24;100738.50;;;22.54;64.35
30875;BME280;17581;43.222;27.924;2023-07-28T08:04:49;100744.47;;;22.64;64.46
30875;BME280;17581;43.222;27.924;2023-07-28T08:07:15;100775.09;;;22.96;65.40
30875;BME280;17581;43.222;27.924;2023-07-28T08:09:41;100742.09;;;22.83;61.39
30875;BME280;17581;43.222;27.924;2023-07-28T08:12:08;100735.22;;;22.93;61.42
30875;BME280;17581;43.222;27.924;2023-07-28T08:14:33;100747.31;;;23.12;60.84
30875;BME280;17581;43.222;27.924;2023-07-28T08:16:59;100738.94;;;23.20;61.18
30875;BME280;17581;43.222;27.924;2023-07-28T08:19:25;100757.03;;;23.42;58.87
30875;BME280;17581;43.222;27.924;2023-07-28T08:21:50;100760.22;;;23.52;58.58
30875;BME280;17581;43.222;27.924;2023-07-28T08:24:16;100753.03;;;23.58;58.06
30875;BME280;17581;43.222;27.924;2023-07-28T08:26:42;100735.06;;;23.42;55.18
30875;BME280;17581;43.222;27.924;2023-07-28T08:29:07;100761.09;;;23.59;55.63
30875;BME280;17581;43.222;27.924;2023-07-28T08:31:33;100743.97;;;23.57;55.06
30875;BME280;17581;43.222;27.924;2023-07-28T08:33:58;100746.72;;;23.64;55.90
30875;BME280;17581;43.222;27.924;2023-07-28T08:36:23;100707.00;;;23.53;55.22
30875;BME280;17581;43.222;27.924;2023-07-28T08:38:49;100736.00;;;23.75;53.95
30875;BME280;17581;43.222;27.924;2023-07-28T08:41:14;100749.13;;;23.87;54.48
30875;BME280;17581;43.222;27.924;2023-07-28T08:43:40;100749.75;;;23.95;53.94
30875;BME280;17581;43.222;27.924;2023-07-28T08:46:06;100729.69;;;23.88;54.01
30875;BME280;17581;43.222;27.924;2023-07-28T08:48:31;100752.16;;;24.11;53.42
30875;BME280;17581;43.222;27.924;2023-07-28T08:50:57;100742.16;;;24.10;51.84
30875;BME280;17581;43.222;27.924;2023-07-28T08:53:22;100764.81;;;24.19;51.75
30875;BME280;17581;43.222;27.924;2023-07-28T08:55:48;100730.78;;;24.13;51.58
30875;BME280;17581;43.222;27.924;2023-07-28T08:58:17;100745.59;;;24.25;52.43
30875;BME280;17581;43.222;27.924;2023-07-28T09:00:44;100747.06;;;24.34;51.48
30875;BME280;17581;43.222;27.924;2023-07-28T09:03:12;100741.81;;;24.46;51.91
30875;BME280;17581;43.222;27.924;2023-07-28T09:05:37;100744.34;;;24.54;52.04
30875;BME280;17581;43.222;27.924;2023-07-28T09:08:06;100736.28;;;24.59;51.21
30875;BME280;17581;43.222;27.924;2023-07-28T09:13:12;100740.91;;;24.72;50.32
30875;BME280;17581;43.222;27.924;2023-07-28T09:15:38;100741.97;;;24.71;48.89
30875;BME280;17581;43.222;27.924;2023-07-28T09:18:03;100713.00;;;24.62;48.77
30875;BME280;17581;43.222;27.924;2023-07-28T09:20:36;100732.25;;;24.81;47.22
30875;BME280;17581;43.222;27.924;2023-07-28T09:23:03;100730.38;;;24.82;46.87
30875;BME280;17581;43.222;27.924;2023-07-28T09:25:29;100720.59;;;24.92;47.45
30875;BME280;17581;43.222;27.924;2023-07-28T09:27:55;100709.16;;;24.96;47.09
30875;BME280;17581;43.222;27.924;2023-07-28T09:30:22;100719.28;;;25.08;46.25
30875;BME280;17581;43.222;27.924;2023-07-28T09:32:49;100739.09;;;25.30;46.69
30875;BME280;17581;43.222;27.924;2023-07-28T09:35:16;100723.00;;;25.27;43.59
30875;BME280;17581;43.222;27.924;2023-07-28T09:37:43;100722.13;;;25.33;43.24
30875;BME280;17581;43.222;27.924;2023-07-28T09:40:16;100716.63;;;25.33;43.31
30875;BME280;17581;43.222;27.924;2023-07-28T09:42:43;100721.25;;;25.39;44.17
30875;BME280;17581;43.222;27.924;2023-07-28T09:45:16;100719.94;;;25.48;42.30
30875;BME280;17581;43.222;27.924;2023-07-28T09:47:44;100690.69;;;25.54;42.37
30875;BME280;17581;43.222;27.924;2023-07-28T09:50:10;100712.81;;;25.78;41.79
30875;BME280;17581;43.222;27.924;2023-07-28T09:52:42;100724.81;;;25.90;40.00
30875;BME280;17581;43.222;27.924;2023-07-28T09:55:09;100714.16;;;26.01;40.24
30875;BME280;17581;43.222;27.924;2023-07-28T09:57:39;100714.50;;;26.11;41.15
30875;BME280;17581;43.222;27.924;2023-07-28T10:00:08;100704.69;;;26.15;40.28
30875;BME280;17581;43.222;27.924;2023-07-28T10:02:36;100722.41;;;26.32;40.57
30875;BME280;17581;43.222;27.924;2023-07-28T10:05:02;100709.88;;;26.36;40.74
30875;BME280;17581;43.222;27.924;2023-07-28T10:07:28;100715.56;;;26.41;39.20
30875;BME280;17581;43.222;27.924;2023-07-28T10:09:54;100717.09;;;26.55;39.71
30875;BME280;17581;43.222;27.924;2023-07-28T10:12:26;100713.91;;;26.58;39.23
30875;BME280;17581;43.222;27.924;2023-07-28T10:15:02;100704.72;;;26.64;37.44
30875;BME280;17581;43.222;27.924;2023-07-28T10:17:35;100702.75;;;26.46;48.62
30875;BME280;17581;43.222;27.924;2023-07-28T10:20:04;100702.31;;;26.25;52.31
30875;BME280;17581;43.222;27.924;2023-07-28T10:22:43;100695.91;;;25.99;53.71
30875;BME280;17581;43.222;27.924;2023-07-28T10:25:08;100704.94;;;25.82;52.12
30875;BME280;17581;43.222;27.924;2023-07-28T10:27:37;100679.06;;;25.45;54.19
30875;BME280;17581;43.222;27.924;2023-07-28T10:30:13;100697.38;;;25.77;54.03
30875;BME280;17581;43.222;27.924;2023-07-28T10:32:44;100682.97;;;25.69;53.79
30875;BME280;17581;43.222;27.924;2023-07-28T10:37:38;100685.88;;;25.49;56.13
30875;BME280;17581;43.222;27.924;2023-07-28T10:40:23;100690.31;;;25.50;56.94
30875;BME280;17581;43.222;27.924;2023-07-28T10:42:50;100675.03;;;25.48;56.85
30875;BME280;17581;43.222;27.924;2023-07-28T10:45:16;100677.41;;;25.44;56.30
30875;BME280;17581;43.222;27.924;2023-07-28T10:47:41;100673.22;;;25.35;55.70
30875;BME280;17581;43.222;27.924;2023-07-28T10:50:09;100645.94;;;25.20;55.78
30875;BME280;17581;43.222;27.924;2023-07-28T10:52:39;100659.94;;;25.19;57.51
30875;BME280;17581;43.222;27.924;2023-07-28T10:55:05;100665.44;;;25.25;55.12
30875;BME280;17581;43.222;27.924;2023-07-28T10:57:30;100663.28;;;25.27;55.09
30875;BME280;17581;43.222;27.924;2023-07-28T11:00:00;100642.13;;;25.28;56.07
30875;BME280;17581;43.222;27.924;2023-07-28T11:02:27;100675.88;;;25.55;56.04
30875;BME280;17581;43.222;27.924;2023-07-28T11:04:52;100660.47;;;25.40;56.48
30875;BME280;17581;43.222;27.924;2023-07-28T11:07:18;100621.00;;;25.15;55.31
30875;BME280;17581;43.222;27.924;2023-07-28T11:09:45;100642.78;;;25.17;55.37
30875;BME280;17581;43.222;27.924;2023-07-28T11:12:10;100663.63;;;25.44;55.30
30875;BME280;17581;43.222;27.924;2023-07-28T11:14:36;100667.34;;;25.63;55.34
30875;BME280;17581;43.222;27.924;2023-07-28T11:17:01;100639.53;;;25.71;53.35
30875;BME280;17581;43.222;27.924;2023-07-28T11:19:27;100666.69;;;25.98;53.93
30875;BME280;17581;43.222;27.924;2023-07-28T11:21:54;100646.03;;;26.08;52.89
30875;BME280;17581;43.222;27.924;2023-07-28T11:24:20;100637.75;;;26.08;52.42
30875;BME280;17581;43.222;27.924;2023-07-28T11:26:46;100659.81;;;26.08;53.08
30875;BME280;17581;43.222;27.924;2023-07-28T11:29:11;100619.19;;;25.96;51.57
30875;BME280;17581;43.222;27.924;2023-07-28T11:31:37;100656.59;;;26.11;51.99
30875;BME280;17581;43.222;27.924;2023-07-28T11:34:02;100656.34;;;25.87;52.43
30875;BME280;17581;43.222;27.924;2023-07-28T11:36:29;100620.22;;;25.77;53.03
30875;BME280;17581;43.222;27.924;2023-07-28T11:38:58;100617.22;;;25.79;52.87
30875;BME280;17581;43.222;27.924;2023-07-28T11:41:25;100640.47;;;25.89;52.34
30875;BME280;17581;43.222;27.924;2023-07-28T11:43:51;100649.25;;;26.05;52.93
30875;BME280;17581;43.222;27.924;2023-07-28T11:46:39;100621.31;;;25.94;52.17
30875;BME280;17581;43.222;27.924;2023-07-28T11:49:16;100612.59;;;25.97;51.72
30875;BME280;17581;43.222;27.924;2023-07-28T11:51:45;100638.56;;;25.90;52.69
30875;BME280;17581;43.222;27.924;2023-07-28T11:54:16;100638.31;;;25.91;52.18
30875;BME280;17581;43.222;27.924;2023-07-28T11:56:45;100618.66;;;25.81;50.75
30875;BME280;17581;43.222;27.924;2023-07-28T11:59:13;100607.38;;;25.89;51.51
30875;BME280;17581;43.222;27.924;2023-07-28T12:04:27;100584.09;;;25.85;51.32
30875;BME280;17581;43.222;27.924;2023-07-28T12:07:15;100628.34;;;26.40;51.38
30875;BME280;17581;43.222;27.924;2023-07-28T12:12:14;100625.53;;;25.97;51.52
30875;BME280;17581;43.222;27.924;2023-07-28T12:14:40;100611.50;;;26.05;51.11
30875;BME280;17581;43.222;27.924;2023-07-28T12:17:16;100610.00;;;26.03;49.53
30875;BME280;17581;43.222;27.924;2023-07-28T12:22:24;100590.25;;;26.06;49.27
30875;BME280;17581;43.222;27.924;2023-07-28T12:25:04;100617.63;;;26.32;49.37
30875;BME280;17581;43.222;27.924;2023-07-28T12:27:30;100609.13;;;26.51;48.67
30875;BME280;17581;43.222;27.924;2023-07-28T12:29:56;100588.75;;;26.34;47.84
30875;BME280;17581;43.222;27.924;2023-07-28T12:32:22;100607.03;;;26.29;47.81
30875;BME280;17581;43.222;27.924;2023-07-28T12:34:48;100611.25;;;26.31;47.96
30875;BME280;17581;43.222;27.924;2023-07-28T12:37:14;100604.19;;;26.17;48.47
30875;BME280;17581;43.222;27.924;2023-07-28T12:39:39;100596.69;;;25.99;49.87
30875;BME280;17581;43.222;27.924;2023-07-28T12:42:08;100603.28;;;25.98;51.20
30875;BME280;17581;43.222;27.924;2023-07-28T12:44:34;100605.81;;;26.25;50.50
30875;BME280;17581;43.222;27.924;2023-07-28T12:47:00;100609.94;;;26.34;50.07
30875;BME280;17581;43.222;27.924;2023-07-28T12:49:29;100597.03;;;26.52;50.35
30875;BME280;17581;43.222;27.924;2023-07-28T12:51:55;100594.41;;;26.58;49.00